Terminal Aerodrome Forecast
Issued by NWS

Home | Current Version | Previous Version | Text Only | Print | Product List | Glossary On
Versions: 1 2 3 4 5 6 7 8 9 10 11 12 13 14 15 16
816
FTUS45 KTFX 261739
TAFHLN
TAF
KHLN 261739Z 2618/2718 34004KT P6SM SCT035 OVC070
     FM262000 34004KT P6SM SCT020 OVC050
      TEMPO 2620/2624 2SM -SN OVC020
     FM270000 31007KT 2SM -SN SCT010 OVC020
     FM271000 32006KT P6SM SCT030 OVC070 PROB30 2710/2716 1SM -SN
      OVC025=

USA.gov is the U.S. government's official web portal to all federal, state and local government web resources and services.